Terminal Aerodrome Forecast
Issued by NWS

Home | Current Version | Previous Version | Text Only | Print | Product List | Glossary On
Versions: 1 2 3 4 5 6 7 8 9 10 11 12 13 14 15
000
FTUS44 KEPZ 240000 RRA
TAFLRU
TAF
KLRU 240000Z 2400/2424 15008KT P6SM VCTS SCT030 BKN040CB BKN100
     FM240400 13008KT P6SM SCT050 SCT100 SCT200
     FM240600 08005KT P6SM FEW080 SCT120
     FM241000 VRB03KT 6SM BR FEW120
     FM241400 13006KT P6SM FEW070=

USA.gov is the U.S. government's official web portal to all federal, state and local government web resources and services.